Time;durP1;ratioP1;P1;durP2;ratioP2;P2;SDS_P1;SDS_P2;PMS_P1;PMS_P2;Temp;Humidity;BMP_temperature;BMP_pressure;BME280_temperature;BME280_humidity;BME280_pressure;Samples;Min_cycle;Max_cycle;Signal;HPM_P1;HPM_P2
2023/09/11 00:01:32;;;;;;;15.60;10.65;;;;;;;-146.27;67.31;78346.50;5049719;28;20033;-68
2023/09/11 00:03:58;;;;;;;15.98;10.63;;;;;;;-146.27;67.06;78344.50;5045386;28;20546;-68
2023/09/11 00:06:27;;;;;;;14.63;10.55;;;;;;;-146.27;67.74;78432.81;5037534;28;20025;-69
2023/09/11 00:08:53;;;;;;;16.90;10.57;;;;;;;-146.27;67.94;78432.81;5041745;28;20033;-68
2023/09/11 00:11:18;;;;;;;15.35;11.07;;;;;;;-146.27;68.25;78523.13;5031303;28;20018;-68
2023/09/11 00:13:44;;;;;;;15.02;9.90;;;;;;;-146.27;68.95;78589.34;5047835;28;20507;-68
2023/09/11 00:16:09;;;;;;;17.33;10.48;;;;;;;-146.27;68.78;78563.25;5039143;28;20037;-68
2023/09/11 00:18:35;;;;;;;17.13;11.07;;;;;;;-146.27;68.62;78549.22;5047045;28;20017;-68
2023/09/11 00:21:00;;;;;;;16.10;10.35;;;;;;;-146.27;69.32;78593.34;5040760;28;20024;-68
2023/09/11 00:23:26;;;;;;;13.57;10.15;;;;;;;-146.27;69.41;78581.31;5043562;28;20026;-68
2023/09/11 00:25:51;;;;;;;24.23;11.07;;;;;;;-146.27;68.70;78621.47;5041930;28;20111;-68
2023/09/11 00:28:17;;;;;;;13.82;10.23;;;;;;;-146.27;68.82;78613.44;5051355;28;20052;-68
2023/09/11 00:30:42;;;;;;;12.02;9.90;;;;;;;-146.27;70.16;78701.72;5031525;28;20033;-69
2023/09/11 00:33:08;;;;;;;22.08;10.32;;;;;;;-146.27;70.09;78713.78;5037954;28;20021;-69
2023/09/11 00:35:33;;;;;;;17.27;10.32;;;;;;;-146.27;70.32;78765.97;5030061;28;20025;-68
2023/09/11 00:37:59;;;;;;;19.63;9.85;;;;;;;-146.27;69.85;78727.81;5041111;28;20024;-68
2023/09/11 00:40:24;;;;;;;14.68;9.90;;;;;;;-146.27;70.62;78763.94;5046747;28;20090;-68
2023/09/11 00:42:49;;;;;;;19.35;10.35;;;;;;;-146.27;70.13;78761.94;5036431;28;20511;-68
2023/09/11 00:45:15;;;;;;;17.95;11.00;;;;;;;-146.27;70.42;78769.97;5042079;28;20029;-69
2023/09/11 00:47:42;;;;;;;17.02;11.10;;;;;;;-146.27;70.23;78802.09;5046850;28;20059;-68
2023/09/11 00:50:10;;;;;;;18.85;10.88;;;;;;;-146.27;70.62;78776.00;5045083;28;20473;-68
2023/09/11 00:52:36;;;;;;;18.02;10.68;;;;;;;-146.27;70.59;78806.09;5042345;28;20037;-68
2023/09/11 00:55:02;;;;;;;18.13;11.27;;;;;;;-146.27;70.91;78870.31;5043435;28;20025;-69
2023/09/11 00:57:28;;;;;;;16.05;10.82;;;;;;;-146.27;71.39;78870.31;5044484;28;20032;-68
2023/09/11 00:59:53;;;;;;;17.30;10.73;;;;;;;-146.27;71.77;78874.34;5047511;28;20013;-68
2023/09/11 01:02:21;;;;;;;14.10;10.20;;;;;;;-146.27;71.89;78928.53;5046944;28;20033;-68
2023/09/11 01:04:46;;;;;;;17.38;10.30;;;;;;;-146.27;71.81;78918.50;5048366;28;20024;-68
2023/09/11 01:07:13;;;;;;;17.98;10.07;;;;;;;-146.27;71.94;78886.38;5051015;28;20542;-68
2023/09/11 01:09:39;;;;;;;17.20;11.23;;;;;;;-146.27;71.58;78910.47;5040247;28;20037;-68
2023/09/11 01:12:05;;;;;;;16.88;10.52;;;;;;;-146.27;71.75;78968.66;5045101;28;20492;-68
2023/09/11 01:14:32;;;;;;;15.40;10.90;;;;;;;-146.27;72.38;78948.59;5039768;28;20042;-68
2023/09/11 01:17:19;;;;;;;12.85;10.38;;;;;;;-146.27;72.39;78982.72;5059200;28;20111;-68
2023/09/11 01:19:45;;;;;;;16.05;10.50;;;;;;;-146.27;72.57;78998.78;5052634;28;20045;-68
2023/09/11 01:22:37;;;;;;;16.30;11.52;;;;;;;-146.27;72.06;79032.91;5041857;28;20053;-68
2023/09/11 01:25:21;;;;;;;14.77;11.00;;;;;;;-146.27;72.33;79054.97;5034319;28;20025;-65
2023/09/11 01:28:20;;;;;;;16.05;11.50;;;;;;;-146.27;72.37;79038.91;5036389;28;20083;-65
2023/09/11 01:30:46;;;;;;;15.63;10.73;;;;;;;-146.27;72.37;79073.03;5048375;28;20053;-65
2023/09/11 01:33:12;;;;;;;17.20;11.48;;;;;;;-146.27;72.64;79099.13;5045395;28;20079;-65
2023/09/11 01:35:37;;;;;;;19.75;11.82;;;;;;;-146.27;72.26;79099.13;5039184;28;20431;-65
2023/09/11 01:38:03;;;;;;;14.05;10.77;;;;;;;-146.27;72.82;79147.31;5032042;28;20109;-65
2023/09/11 01:40:32;;;;;;;15.93;11.50;;;;;;;-146.27;72.68;79143.28;5041116;28;20025;-65
2023/09/11 01:43:02;;;;;;;16.48;12.18;;;;;;;-146.27;72.92;79215.53;5042559;28;20032;-65
2023/09/11 01:45:30;;;;;;;15.85;10.90;;;;;;;-146.27;72.66;79187.44;5042500;28;20062;-65
2023/09/11 01:47:56;;;;;;;19.02;11.30;;;;;;;-146.27;73.40;79189.44;5046794;28;20057;-65
2023/09/11 01:50:23;;;;;;;16.80;11.40;;;;;;;-146.27;72.99;79175.41;5051520;28;20116;-65
2023/09/11 01:52:49;;;;;;;15.43;11.02;;;;;;;-146.27;73.61;79257.69;5043285;28;20052;-65
2023/09/11 01:55:16;;;;;;;18.17;12.23;;;;;;;-146.27;73.25;79211.53;5037854;28;20469;-65
2023/09/11 01:57:42;;;;;;;19.08;12.98;;;;;;;-146.27;73.74;79253.69;5050651;28;20036;-65
2023/09/11 02:00:08;;;;;;;17.35;12.23;;;;;;;-146.27;73.22;79195.47;5041341;28;20033;-65
2023/09/11 02:02:34;;;;;;;19.23;12.80;;;;;;;-146.27;73.12;79159.34;5043224;28;20053;-65
2023/09/11 02:05:00;;;;;;;19.58;12.50;;;;;;;-146.27;72.71;79115.19;5044952;28;20029;-65
2023/09/11 02:07:26;;;;;;;17.55;12.02;;;;;;;-146.27;72.22;79129.25;5052076;28;20033;-65
2023/09/11 02:09:51;;;;;;;20.73;11.70;;;;;;;-146.27;72.27;79123.22;5046659;28;20547;-65
2023/09/11 02:12:16;;;;;;;17.98;12.63;;;;;;;-146.27;72.10;79119.19;5034222;28;20021;-65
2023/09/11 02:14:42;;;;;;;19.63;13.43;;;;;;;-146.27;72.34;79183.44;5038742;28;20053;-66
2023/09/11 02:17:07;;;;;;;19.15;12.48;;;;;;;-146.27;72.30;79187.44;5043581;28;20037;-68
2023/09/11 02:19:33;;;;;;;16.90;12.43;;;;;;;-146.27;72.63;79267.72;5039211;28;20033;-65
2023/09/11 02:21:59;;;;;;;20.63;12.35;;;;;;;-146.27;73.14;79295.84;5041677;28;20138;-65
2023/09/11 02:24:24;;;;;;;19.02;13.02;;;;;;;-146.27;73.55;79279.78;5040878;28;20538;-66
2023/09/11 02:26:50;;;;;;;18.98;14.13;;;;;;;-146.27;73.73;79307.88;5041113;28;20024;-65
2023/09/11 02:29:15;;;;;;;19.30;13.15;;;;;;;-146.27;73.62;79267.72;5044015;28;20108;-66
2023/09/11 02:31:40;;;;;;;24.00;14.05;;;;;;;-146.27;72.68;79251.69;5042674;28;20052;-68
2023/09/11 02:34:06;;;;;;;18.83;13.15;;;;;;;-146.27;72.73;79253.69;5037769;28;20115;-65
2023/09/11 02:36:31;;;;;;;20.77;13.85;;;;;;;-146.27;74.01;79354.03;5058526;28;20029;-65
2023/09/11 02:38:56;;;;;;;16.20;12.98;;;;;;;-146.27;73.86;79374.13;5047960;28;20074;-65
2023/09/11 02:41:22;;;;;;;16.75;13.02;;;;;;;-146.27;74.13;79414.25;5031647;28;20028;-66
2023/09/11 02:43:47;;;;;;;21.80;14.18;;;;;;;-146.27;74.49;79410.25;5036118;28;20108;-65
2023/09/11 02:46:12;;;;;;;21.58;14.02;;;;;;;-146.27;74.55;79422.28;5043699;28;20056;-65
2023/09/11 02:48:47;;;;;;;27.10;14.32;;;;;;;-146.27;74.45;79396.19;5044053;28;20400;-65
2023/09/11 02:51:14;;;;;;;20.58;14.00;;;;;;;-146.27;73.96;79440.34;5037287;28;20047;-65
2023/09/11 02:53:39;;;;;;;19.20;14.40;;;;;;;-146.27;74.23;79410.25;5037791;28;20107;-65
2023/09/11 02:56:05;;;;;;;17.40;13.38;;;;;;;-146.27;74.70;79402.22;5050170;28;20028;-65
2023/09/11 02:58:30;;;;;;;24.52;14.05;;;;;;;-146.27;73.24;79414.25;5050201;28;20382;-65
2023/09/11 03:01:03;;;;;;;26.55;14.18;;;;;;;-146.27;74.17;79452.41;5049902;28;20029;-65
2023/09/11 03:03:29;;;;;;;24.73;13.90;;;;;;;-146.27;74.25;79520.66;5048025;28;20045;-65
2023/09/11 03:05:56;;;;;;;23.38;14.15;;;;;;;-146.27;74.99;79548.75;5048570;28;20070;-66
2023/09/11 03:08:22;;;;;;;24.08;14.00;;;;;;;-146.27;74.62;79500.59;5041829;28;20028;-65
2023/09/11 03:10:47;;;;;;;21.42;14.77;;;;;;;-146.27;74.71;79502.59;5031813;28;20526;-65
2023/09/11 03:13:13;;;;;;;24.63;15.48;;;;;;;-146.27;74.71;79484.53;5031248;28;20116;-65
2023/09/11 03:15:38;;;;;;;20.02;14.63;;;;;;;-146.27;74.28;79508.59;5047879;28;20048;-65
2023/09/11 03:18:04;;;;;;;19.05;14.00;;;;;;;-146.27;74.60;79474.47;5049521;28;20637;-65
2023/09/11 03:20:29;;;;;;;20.20;14.27;;;;;;;-146.27;74.83;79464.44;5049815;28;20029;-66
2023/09/11 03:22:54;;;;;;;22.15;16.48;;;;;;;-146.27;74.35;79440.34;5042776;28;20021;-66
2023/09/11 03:25:20;;;;;;;22.27;14.75;;;;;;;-146.27;74.14;79414.25;5032235;28;20108;-65
2023/09/11 03:27:45;;;;;;;21.08;14.30;;;;;;;-146.27;74.24;79404.22;5045383;28;20041;-65
2023/09/11 03:30:11;;;;;;;20.98;14.60;;;;;;;-146.27;73.97;79454.41;5048350;28;20480;-65
2023/09/11 03:32:36;;;;;;;19.23;14.70;;;;;;;-146.27;74.06;79408.25;5039027;28;20033;-66
2023/09/11 03:35:02;;;;;;;22.02;14.15;;;;;;;-146.27;73.73;79404.22;5036354;28;20030;-65
2023/09/11 03:37:28;;;;;;;20.35;14.45;;;;;;;-146.27;73.88;79376.13;5037313;28;20087;-65
2023/09/11 03:39:55;;;;;;;27.38;14.52;;;;;;;-146.27;73.54;79364.09;5031091;28;20393;-66
2023/09/11 03:42:21;;;;;;;19.85;13.88;;;;;;;-146.27;73.38;79364.09;5035662;28;20029;-65
2023/09/11 03:44:46;;;;;;;24.30;15.68;;;;;;;-146.27;73.34;79388.16;5040520;28;20063;-65
2023/09/11 03:47:11;;;;;;;23.17;14.13;;;;;;;-146.27;73.77;79440.34;5054691;28;20017;-66
2023/09/11 03:49:38;;;;;;;20.40;14.52;;;;;;;-146.27;73.91;79462.44;5053714;28;20024;-65
2023/09/11 03:52:03;;;;;;;22.73;13.93;;;;;;;-146.27;73.88;79432.34;5052294;28;20528;-65
2023/09/11 03:54:29;;;;;;;19.10;14.38;;;;;;;-146.27;73.70;79452.41;5047816;28;20033;-65
2023/09/11 03:56:54;;;;;;;25.00;14.95;;;;;;;-146.27;73.23;79412.25;5037289;28;20025;-68
2023/09/11 03:59:19;;;;;;;18.13;14.70;;;;;;;-146.27;73.75;79412.25;5044828;28;20025;-69
2023/09/11 04:01:45;;;;;;;19.90;14.40;;;;;;;-146.27;73.35;79424.31;5043382;28;20016;-67
2023/09/11 04:04:10;;;;;;;21.23;14.88;;;;;;;-146.27;73.73;79488.53;5038862;28;20033;-69
2023/09/11 04:06:35;;;;;;;25.58;14.82;;;;;;;-146.27;73.87;79540.72;5050214;28;20107;-70
2023/09/11 04:09:01;;;;;;;26.70;14.02;;;;;;;-146.27;74.44;79580.88;5047802;28;20063;-69
2023/09/11 04:11:26;;;;;;;25.15;13.95;;;;;;;-146.27;74.53;79580.88;5037317;28;20040;-67
2023/09/11 04:13:51;;;;;;;23.63;15.10;;;;;;;-146.27;74.96;79663.19;5042434;28;20024;-68
2023/09/11 04:16:17;;;;;;;19.90;13.35;;;;;;;-146.27;75.19;79683.25;5041642;28;20112;-68
2023/09/11 04:18:43;;;;;;;19.60;14.95;;;;;;;-146.27;75.43;79665.19;5031174;28;20044;-67
2023/09/11 04:21:09;;;;;;;19.40;14.65;;;;;;;-146.27;75.21;79699.31;5034512;28;20052;-68
2023/09/11 04:23:34;;;;;;;21.95;14.57;;;;;;;-146.27;76.02;79745.50;5034886;28;20082;-68
2023/09/11 04:26:00;;;;;;;19.98;14.63;;;;;;;-146.27;75.56;79735.44;5030824;28;20417;-68
2023/09/11 04:28:26;;;;;;;21.45;14.57;;;;;;;-146.27;76.26;79713.38;5048785;28;20029;-68
2023/09/11 04:30:51;;;;;;;20.50;15.18;;;;;;;-146.27;75.68;79767.56;5041688;28;20360;-68
2023/09/11 04:33:18;;;;;;;21.50;14.73;;;;;;;-146.27;76.29;79817.75;5049176;28;20079;-69
2023/09/11 04:35:43;;;;;;;21.35;14.35;;;;;;;-146.27;76.49;79841.84;5044980;28;20025;-68
2023/09/11 04:38:09;;;;;;;19.83;13.00;;;;;;;-146.27;77.34;79837.84;5054947;28;20024;-68
2023/09/11 04:40:34;;;;;;;17.52;13.27;;;;;;;-146.27;77.09;79867.94;5037561;28;20512;-69
2023/09/11 04:43:00;;;;;;;21.73;14.13;;;;;;;-146.27;76.39;79880.00;5047599;28;20025;-68
2023/09/11 04:45:25;;;;;;;19.52;14.25;;;;;;;-146.27;76.57;79865.94;5050038;28;20048;-68
2023/09/11 04:47:50;;;;;;;21.67;12.85;;;;;;;-146.27;76.62;79873.97;5046220;28;20876;-68
2023/09/11 04:50:16;;;;;;;19.65;13.10;;;;;;;-146.27;76.16;79886.00;5049766;28;20632;-70
2023/09/11 04:52:42;;;;;;;18.63;13.13;;;;;;;-146.27;76.77;79851.88;5041446;28;20036;-68
2023/09/11 04:55:08;;;;;;;22.55;12.98;;;;;;;-146.27;76.27;79839.84;5048146;28;20381;-68
2023/09/11 04:57:34;;;;;;;18.25;13.32;;;;;;;-146.27;76.47;79817.75;5043517;28;20108;-68
2023/09/11 04:59:59;;;;;;;17.75;11.40;;;;;;;-146.27;75.98;79801.69;5047535;28;20637;-68
2023/09/11 05:02:25;;;;;;;18.45;11.40;;;;;;;-146.27;75.80;79757.53;5054377;28;20115;-68
2023/09/11 05:04:51;;;;;;;18.10;11.25;;;;;;;-146.27;74.85;79813.75;5042006;28;20047;-64
2023/09/11 05:07:16;;;;;;;18.23;11.13;;;;;;;-146.27;74.99;79787.66;5055800;28;20029;-65
2023/09/11 05:09:41;;;;;;;23.50;12.80;;;;;;;-146.27;75.40;79781.63;5048375;28;20021;-65
2023/09/11 05:12:07;;;;;;;15.90;11.70;;;;;;;-146.27;75.38;79795.69;5051858;28;20037;-65
2023/09/11 05:14:33;;;;;;;15.35;11.32;;;;;;;-146.27;74.59;79811.72;5038937;28;20063;-64
2023/09/11 05:16:58;;;;;;;17.50;11.48;;;;;;;-146.27;74.90;79781.63;5046960;28;20059;-65
2023/09/11 05:19:23;;;;;;;21.05;12.13;;;;;;;-146.27;74.56;79785.63;5046744;28;20688;-66
2023/09/11 05:21:49;;;;;;;27.88;11.82;;;;;;;-146.27;74.94;79829.81;5040484;28;20075;-65
2023/09/11 05:24:14;;;;;;;19.48;11.40;;;;;;;-146.27;74.30;79807.72;5040643;28;20032;-65
2023/09/11 05:26:39;;;;;;;24.42;11.77;;;;;;;-146.27;74.65;79813.75;5043146;28;20063;-66
2023/09/11 05:29:05;;;;;;;22.25;11.65;;;;;;;-146.27;74.62;79821.78;5042604;28;20039;-66
2023/09/11 05:31:30;;;;;;;29.48;12.10;;;;;;;-146.27;74.56;79813.75;5038508;28;20037;-65
2023/09/11 05:33:55;;;;;;;16.83;12.05;;;;;;;-146.27;74.60;79829.81;5043179;28;20532;-67
2023/09/11 05:36:21;;;;;;;19.73;12.52;;;;;;;-146.27;75.34;79769.56;5043014;28;20095;-66
2023/09/11 05:38:49;;;;;;;20.02;11.13;;;;;;;-146.27;74.70;79833.81;5044022;28;20017;-65
2023/09/11 05:41:14;;;;;;;24.73;11.55;;;;;;;-146.27;75.09;79807.72;5033232;28;20029;-67
2023/09/11 05:43:40;;;;;;;16.23;10.80;;;;;;;-146.27;74.46;79771.59;5042123;28;20041;-66
2023/09/11 05:46:06;;;;;;;19.42;11.60;;;;;;;-146.27;74.36;79697.31;5036464;28;20055;-65
2023/09/11 05:48:32;;;;;;;25.88;13.00;;;;;;;-146.27;73.44;79675.22;5037151;28;20049;-66
2023/09/11 05:50:57;;;;;;;18.40;11.52;;;;;;;-146.27;73.90;79693.28;5046361;28;20057;-65
2023/09/11 05:53:23;;;;;;;16.17;12.38;;;;;;;-146.27;73.62;79633.06;5048774;28;20028;-66
2023/09/11 05:55:48;;;;;;;24.48;13.27;;;;;;;-146.27;72.76;79604.97;5043291;28;20536;-68
2023/09/11 05:58:14;;;;;;;19.63;12.75;;;;;;;-146.27;72.54;79604.97;5046468;28;20048;-66
2023/09/11 06:00:40;;;;;;;18.73;11.95;;;;;;;-146.27;72.10;79544.75;5041791;28;20025;-67
2023/09/11 06:03:05;;;;;;;20.95;13.20;;;;;;;-146.27;72.16;79611.00;5055690;28;20373;-67
2023/09/11 06:05:32;;;;;;;22.77;14.00;;;;;;;-146.27;72.85;79659.16;5046744;28;20086;-67
2023/09/11 06:07:57;;;;;;;25.13;13.52;;;;;;;-146.27;72.43;79613.00;5050641;28;20028;-67
2023/09/11 06:10:23;;;;;;;31.25;15.23;;;;;;;-146.27;72.74;79564.81;5054020;28;20028;-65
2023/09/11 06:12:48;;;;;;;27.27;14.93;;;;;;;-146.27;72.71;79552.78;5055417;28;20021;-68
2023/09/11 06:15:14;;;;;;;22.10;15.23;;;;;;;-146.27;72.18;79540.72;5053243;28;20044;-66
2023/09/11 06:17:40;;;;;;;28.15;15.98;;;;;;;-146.27;72.59;79584.88;5045101;28;20016;-67
2023/09/11 06:20:09;;;;;;;28.67;16.25;;;;;;;-146.27;72.63;79536.72;5037387;28;20088;-67
2023/09/11 06:22:36;;;;;;;25.42;16.65;;;;;;;-146.27;72.57;79546.75;5050989;28;20384;-66
2023/09/11 06:25:02;;;;;;;27.73;17.90;;;;;;;-146.27;72.29;79506.59;5049183;28;20086;-67
2023/09/11 06:27:28;;;;;;;32.03;17.40;;;;;;;-146.27;72.46;79500.59;5031550;28;20075;-65
2023/09/11 06:29:54;;;;;;;26.50;17.10;;;;;;;-146.27;73.00;79516.63;5034599;28;20523;-67
2023/09/11 06:32:20;;;;;;;34.05;18.75;;;;;;;-146.27;72.75;79596.94;5042808;28;20070;-68
2023/09/11 06:34:45;;;;;;;26.80;19.20;;;;;;;-146.27;73.92;79564.81;5042521;28;20025;-67
2023/09/11 06:37:11;;;;;;;24.60;18.08;;;;;;;-146.27;73.23;79568.84;5042810;28;20480;-68
2023/09/11 06:39:36;;;;;;;31.15;18.52;;;;;;;-146.27;73.19;79516.63;5033679;28;20024;-67
2023/09/11 06:42:01;;;;;;;28.40;19.38;;;;;;;-146.27;73.53;79532.69;5040145;28;20021;-67
2023/09/11 06:44:27;;;;;;;29.50;20.00;;;;;;;-146.27;73.18;79536.72;5031050;28;20453;-67
2023/09/11 06:46:52;;;;;;;33.97;20.38;;;;;;;-146.27;73.72;79576.88;5030655;28;20021;-67
2023/09/11 06:49:18;;;;;;;31.88;20.40;;;;;;;-146.27;73.45;79596.94;5031300;28;20528;-68
2023/09/11 06:51:43;;;;;;;32.58;20.88;;;;;;;-146.27;73.05;79522.66;5034210;28;20111;-67
2023/09/11 06:54:09;;;;;;;31.40;20.33;;;;;;;-146.27;74.12;79651.13;5036950;28;20021;-67
2023/09/11 06:56:36;;;;;;;39.42;20.30;;;;;;;-146.27;73.95;79578.88;5031531;28;20037;-68
2023/09/11 06:59:01;;;;;;;30.17;20.02;;;;;;;-146.27;73.48;79530.69;5031018;28;20033;-68
2023/09/11 07:01:27;;;;;;;38.33;21.63;;;;;;;-146.27;73.32;79488.53;5030796;28;20033;-67
2023/09/11 07:03:52;;;;;;;33.58;21.73;;;;;;;-146.27;72.87;79408.25;5042740;28;20024;-67
2023/09/11 07:06:17;;;;;;;27.40;18.83;;;;;;;-146.27;72.54;79396.19;5050317;28;20115;-67
2023/09/11 07:08:43;;;;;;;35.80;19.67;;;;;;;-146.27;72.12;79321.94;5050894;28;20063;-67
2023/09/11 07:11:08;;;;;;;29.50;19.30;;;;;;;-146.27;71.69;79392.19;5050975;28;20025;-66
2023/09/11 07:13:33;;;;;;;27.98;18.58;;;;;;;-146.27;71.96;79356.06;5051005;28;20068;-67
2023/09/11 07:16:01;;;;;;;26.40;19.10;;;;;;;-146.27;71.42;79311.91;5050860;28;20394;-67
2023/09/11 07:18:27;;;;;;;26.48;18.98;;;;;;;-146.27;71.26;79424.31;5043678;28;20022;-67
2023/09/11 07:20:53;;;;;;;27.45;19.45;;;;;;;-146.27;71.53;79408.25;5038343;28;20115;-67
2023/09/11 07:23:23;;;;;;;25.45;17.27;;;;;;;-146.27;71.08;79315.91;5048603;28;20536;-67
2023/09/11 07:25:51;;;;;;;28.00;18.20;;;;;;;-146.27;70.94;79291.81;5039149;28;20025;-67
2023/09/11 07:28:17;;;;;;;23.65;16.23;;;;;;;-146.27;70.68;79235.63;5030443;28;20021;-67
2023/09/11 07:30:44;;;;;;;35.67;17.45;;;;;;;-146.27;70.53;79255.69;5032552;28;20120;-67
2023/09/11 07:33:10;;;;;;;30.52;16.67;;;;;;;-146.27;70.15;79137.25;5045073;28;20036;-67
2023/09/11 07:35:35;;;;;;;26.73;15.60;;;;;;;-146.27;70.36;79113.19;5029388;28;20033;-69
2023/09/11 07:38:01;;;;;;;22.55;15.90;;;;;;;-146.27;69.93;79117.19;5030271;28;20489;-70
2023/09/11 07:40:26;;;;;;;21.50;15.38;;;;;;;-146.27;69.76;79075.03;5030886;28;20035;-69
2023/09/11 07:42:54;;;;;;;21.25;15.43;;;;;;;-146.27;69.63;79159.34;5050047;28;20021;-69
2023/09/11 07:45:20;;;;;;;22.67;15.35;;;;;;;-146.27;69.74;79241.63;5049371;28;20056;-69
2023/09/11 07:47:46;;;;;;;22.60;14.40;;;;;;;-146.27;69.26;79089.09;5050436;28;20766;-68
2023/09/11 07:50:11;;;;;;;21.73;12.77;;;;;;;-146.27;69.20;79131.25;5049316;28;20029;-67
2023/09/11 07:52:36;;;;;;;19.77;12.43;;;;;;;-146.27;68.19;78998.78;5048360;28;20029;-68
2023/09/11 07:55:03;;;;;;;17.75;11.48;;;;;;;-146.27;68.41;78934.53;5037771;28;20109;-69
2023/09/11 07:57:30;;;;;;;20.33;11.57;;;;;;;-146.27;68.15;78930.53;5030371;28;20026;-70
2023/09/11 07:59:56;;;;;;;17.10;10.45;;;;;;;-146.27;67.55;78984.72;5041457;28;20087;-68
2023/09/11 08:02:21;;;;;;;17.33;10.98;;;;;;;-146.27;66.93;79042.94;5041386;28;20108;-68
2023/09/11 08:04:47;;;;;;;13.02;9.35;;;;;;;-146.27;66.88;78992.75;5030443;28;20029;-69
2023/09/11 08:07:12;;;;;;;15.63;8.68;;;;;;;-146.27;66.25;79002.78;5047712;28;20028;-68
2023/09/11 08:09:38;;;;;;;11.57;7.60;;;;;;;-146.27;65.95;78866.31;5049830;28;20029;-68
2023/09/11 08:12:03;;;;;;;11.80;6.93;;;;;;;-146.27;65.64;78976.69;5050026;28;20116;-67
2023/09/11 08:14:30;;;;;;;10.18;6.68;;;;;;;-146.27;65.26;79052.97;5043947;28;20053;-68
2023/09/11 08:16:55;;;;;;;10.80;6.07;;;;;;;-146.27;64.76;78966.66;5035571;28;20032;-68
2023/09/11 08:19:20;;;;;;;10.80;6.55;;;;;;;-146.27;64.17;78856.28;5054029;28;20028;-68
2023/09/11 08:21:46;;;;;;;11.35;6.22;;;;;;;-146.27;63.85;78737.84;5053980;28;20025;-69
2023/09/11 08:24:11;;;;;;;11.32;7.13;;;;;;;-146.27;64.18;78778.00;5053973;28;20059;-69
2023/09/11 08:26:38;;;;;;;15.57;7.50;;;;;;;-146.27;64.60;78912.47;5051915;28;20123;-69
2023/09/11 08:29:04;;;;;;;9.60;6.28;;;;;;;-146.27;64.56;78894.41;5053848;28;20029;-68
2023/09/11 08:31:29;;;;;;;12.95;6.32;;;;;;;-146.27;63.62;78725.81;5039970;28;20393;-69
2023/09/11 08:33:55;;;;;;;11.88;6.10;;;;;;;-146.27;63.25;78798.06;5033905;28;20076;-68
2023/09/11 08:36:21;;;;;;;8.73;5.70;;;;;;;-146.27;62.46;78635.50;5033974;28;20094;-68
2023/09/11 08:38:47;;;;;;;13.13;5.80;;;;;;;-146.27;62.46;78601.38;5033746;28;20052;-69
2023/09/11 08:41:13;;;;;;;10.25;5.25;;;;;;;-146.27;61.96;78454.88;5033779;28;20463;-69
2023/09/11 08:43:39;;;;;;;13.07;5.45;;;;;;;-146.27;61.40;78412.75;5033657;28;20025;-68
2023/09/11 08:46:07;;;;;;;8.10;5.38;;;;;;;-146.27;61.51;78689.69;5033582;28;20470;-68
2023/09/11 08:48:36;;;;;;;10.85;5.13;;;;;;;-146.27;61.08;78489.00;5050091;28;20112;-69
2023/09/11 08:51:09;;;;;;;9.80;5.65;;;;;;;-146.27;61.48;78527.13;5050391;28;20033;-68
2023/09/11 08:53:36;;;;;;;9.77;5.40;;;;;;;-146.27;61.66;78410.72;5050637;28;20471;-67
2023/09/11 08:56:01;;;;;;;13.93;6.18;;;;;;;-146.27;61.34;78440.84;5048819;28;20033;-68
2023/09/11 08:58:30;;;;;;;9.30;5.28;;;;;;;-146.27;61.93;78472.94;5051031;28;20029;-67
2023/09/11 09:00:56;;;;;;;13.95;5.47;;;;;;;-146.27;61.83;78448.88;5053102;28;20491;-68
2023/09/11 09:03:23;;;;;;;10.23;5.97;;;;;;;-146.27;61.81;78358.56;5050252;28;20040;-68
2023/09/11 09:05:49;;;;;;;10.38;5.85;;;;;;;-146.27;63.01;78468.94;5043264;28;20037;-67
2023/09/11 09:08:15;;;;;;;10.80;6.40;;;;;;;-146.27;62.43;78388.66;5049941;28;20442;-68
2023/09/11 09:10:42;;;;;;;17.23;6.35;;;;;;;-146.27;62.54;78464.91;5048799;28;20044;-67
2023/09/11 09:13:09;;;;;;;9.82;6.18;;;;;;;-146.27;62.21;78298.34;5054191;28;20033;-67
2023/09/11 09:15:40;;;;;;;11.73;6.30;;;;;;;-146.27;62.04;78198.03;5039934;28;20432;-67
2023/09/11 09:18:06;;;;;;;11.90;6.63;;;;;;;-146.27;61.76;78175.94;5050773;28;20044;-67
2023/09/11 09:20:32;;;;;;;9.27;6.45;;;;;;;-146.27;61.55;78220.09;5039007;28;20037;-67
2023/09/11 09:22:59;;;;;;;12.07;6.40;;;;;;;-146.27;61.70;78192.00;5039216;28;20421;-67
2023/09/11 09:25:25;;;;;;;18.48;6.95;;;;;;;-146.27;62.68;78358.56;5033026;28;20056;-68
2023/09/11 09:27:52;;;;;;;13.32;7.15;;;;;;;-146.27;62.64;78332.47;5046204;28;20026;-67
2023/09/11 09:30:22;;;;;;;11.13;6.05;;;;;;;-146.27;62.32;78035.47;5032411;28;20698;-68
2023/09/11 09:32:49;;;;;;;11.20;6.30;;;;;;;-146.27;61.31;77991.34;5034811;28;20110;-67
2023/09/11 09:35:20;;;;;;;13.38;6.55;;;;;;;-146.27;60.64;78304.38;5047086;28;20504;-67
2023/09/11 09:37:52;;;;;;;9.82;6.40;;;;;;;-146.27;62.37;78121.75;5059824;28;20079;-66
2023/09/11 09:40:35;;;;;;;12.55;6.57;;;;;;;-146.27;61.38;78244.16;5033190;28;20469;-68
2023/09/11 09:43:14;;;;;;;10.65;6.20;;;;;;;-146.27;61.77;78171.94;5034194;28;20033;-68
2023/09/11 09:45:42;;;;;;;11.52;6.43;;;;;;;-146.27;61.87;78396.69;5052130;28;20116;-69
2023/09/11 09:48:18;;;;;;;12.45;6.93;;;;;;;-146.27;62.76;78220.09;5051639;28;20090;-72
2023/09/11 09:50:53;;;;;;;16.05;6.28;;;;;;;-146.27;62.26;77907.06;5043488;28;20069;-69
2023/09/11 09:53:34;;;;;;;10.02;6.78;;;;;;;-146.27;61.51;77887.00;5043866;28;20025;-68
2023/09/11 09:56:04;;;;;;;16.20;6.32;;;;;;;-146.27;60.81;77710.41;5033491;28;20025;-69
2023/09/11 09:58:44;;;;;;;9.40;6.35;;;;;;;-146.27;60.46;77580.00;5042992;28;20053;-68
2023/09/11 10:01:15;;;;;;;14.32;6.68;;;;;;;-146.27;59.22;77786.66;5044078;28;20048;-70
2023/09/11 10:03:43;;;;;;;13.27;6.55;;;;;;;-146.27;59.67;77889.00;5034982;28;20476;-70
2023/09/11 10:06:10;;;;;;;12.70;6.13;;;;;;;-146.27;59.63;77999.34;5034755;28;20032;-69
2023/09/11 10:08:36;;;;;;;14.75;6.43;;;;;;;-146.27;59.29;77895.00;5043747;28;20025;-69
2023/09/11 10:11:02;;;;;;;12.75;6.60;;;;;;;-146.27;58.95;77907.06;5050818;28;20035;-71
2023/09/11 10:13:31;;;;;;;12.15;7.18;;;;;;;-146.27;59.70;78027.44;5051799;28;20021;-72
2023/09/11 10:15:58;;;;;;;13.38;7.65;;;;;;;-146.27;60.00;77925.13;5038415;28;20128;-72
2023/09/11 10:18:25;;;;;;;13.77;7.15;;;;;;;-146.27;60.21;77754.56;5033712;28;20117;-72
2023/09/11 10:20:50;;;;;;;14.25;8.18;;;;;;;-146.27;61.08;77899.03;5041405;28;20029;-70
2023/09/11 10:23:16;;;;;;;17.08;8.68;;;;;;;-146.27;60.38;77696.38;5049018;28;20473;-71
2023/09/11 10:25:56;;;;;;;12.13;7.50;;;;;;;-146.27;60.35;77586.00;5051657;28;20033;-70
2023/09/11 10:28:32;;;;;;;12.90;7.93;;;;;;;-146.27;59.84;77760.56;5049786;28;21656;-69
2023/09/11 10:30:59;;;;;;;20.45;9.38;;;;;;;-146.27;60.25;77804.72;5049256;28;20017;-70
2023/09/11 10:33:26;;;;;;;17.23;8.35;;;;;;;-146.27;60.19;77549.91;5048414;28;20484;-70
2023/09/11 10:35:57;;;;;;;17.38;8.65;;;;;;;-146.27;59.70;77561.94;5049977;28;20381;-67
2023/09/11 10:38:23;;;;;;;14.35;7.95;;;;;;;-146.27;58.84;77401.44;5045674;28;20028;-68
2023/09/11 10:40:49;;;;;;;15.63;9.77;;;;;;;-146.27;59.41;77409.47;5041603;28;20436;-68
2023/09/11 10:43:15;;;;;;;14.55;8.82;;;;;;;-146.27;59.33;77158.69;5059803;28;20025;-70
2023/09/11 10:45:40;;;;;;;16.73;8.98;;;;;;;-146.27;59.59;77435.53;5049337;28;20117;-69
2023/09/11 10:48:06;;;;;;;15.98;8.23;;;;;;;-146.27;60.34;77283.06;5052644;28;20021;-70
2023/09/11 10:50:38;;;;;;;17.52;9.32;;;;;;;-146.27;58.51;77228.91;5061686;28;20021;-70
2023/09/11 10:53:07;;;;;;;14.10;8.98;;;;;;;-146.27;58.67;77246.94;5050188;28;20388;-70
2023/09/11 10:55:34;;;;;;;17.50;10.18;;;;;;;-146.27;58.79;77028.28;5059559;28;20107;-68
2023/09/11 10:58:04;;;;;;;15.02;9.52;;;;;;;-146.27;59.12;77427.50;5050967;28;20132;-66
2023/09/11 11:00:30;;;;;;;15.75;8.85;;;;;;;-146.27;59.43;77208.84;5044334;28;20437;-67
2023/09/11 11:02:58;;;;;;;20.67;11.02;;;;;;;-146.27;58.81;77156.66;5031087;28;20028;-67